Leadville, Colorado
Current Conditions -  °F | °C
As of 7:53 PM on Monday 26 Jan 2015 (Local Time) from KLXV Reporting Station
Clear Clear  
Wind Chill: 32°   Ceiling: Unl
Heat Index: 32°   Visibility: 10mi
Dew Point: 13°   Wind: 0mph
Humidity: 45%   Direction: NA
Pressure: 30.45"   Gusts: NA
Location:  39.25°N, 106.29°W
Report Text: KLXV 270253Z AUTO 00000KT 10SM CLR 00/M11 A3045 RMK AO2 SLP285 T00001106 51006
Loading
Personal Weather Stations






























Interactive Weather Map New forecast layout! Learn more

10-Day Weather Forecast

Advertisements
Track Severe Weather on mobile